sensor_id;sensor_type;location;lat;lon;timestamp;P1;durP1;ratioP1;P2;durP2;ratioP2
6898;SDS011;3488;42.616;23.350;2022-09-03T00:00:00;5.82;;;5.32;;
6898;SDS011;3488;42.616;23.350;2022-09-03T00:02:37;4.85;;;4.45;;
6898;SDS011;3488;42.616;23.350;2022-09-03T00:05:09;6.68;;;4.55;;
6898;SDS011;3488;42.616;23.350;2022-09-03T00:07:46;6.80;;;4.65;;
6898;SDS011;3488;42.616;23.350;2022-09-03T00:10:23;4.75;;;4.35;;
6898;SDS011;3488;42.616;23.350;2022-09-03T00:12:55;5.05;;;4.55;;
6898;SDS011;3488;42.616;23.350;2022-09-03T00:15:26;5.32;;;4.10;;
6898;SDS011;3488;42.616;23.350;2022-09-03T00:17:58;5.10;;;4.32;;
6898;SDS011;3488;42.616;23.350;2022-09-03T00:20:30;5.43;;;4.53;;
6898;SDS011;3488;42.616;23.350;2022-09-03T00:23:04;4.85;;;4.45;;
6898;SDS011;3488;42.616;23.350;2022-09-03T00:25:34;7.95;;;5.03;;
6898;SDS011;3488;42.616;23.350;2022-09-03T00:28:06;5.15;;;4.75;;
6898;SDS011;3488;42.616;23.350;2022-09-03T00:30:38;4.78;;;4.35;;
6898;SDS011;3488;42.616;23.350;2022-09-03T00:33:08;4.95;;;4.55;;
6898;SDS011;3488;42.616;23.350;2022-09-03T00:35:41;5.28;;;4.78;;
6898;SDS011;3488;42.616;23.350;2022-09-03T00:38:14;5.53;;;5.03;;
6898;SDS011;3488;42.616;23.350;2022-09-03T00:40:44;4.78;;;4.13;;
6898;SDS011;3488;42.616;23.350;2022-09-03T00:43:24;5.13;;;4.72;;
6898;SDS011;3488;42.616;23.350;2022-09-03T00:46:06;5.72;;;4.85;;
6898;SDS011;3488;42.616;23.350;2022-09-03T00:48:46;7.05;;;4.75;;
6898;SDS011;3488;42.616;23.350;2022-09-03T00:51:23;5.05;;;4.55;;
6898;SDS011;3488;42.616;23.350;2022-09-03T00:54:01;6.90;;;4.72;;
6898;SDS011;3488;42.616;23.350;2022-09-03T00:56:35;5.03;;;4.57;;
6898;SDS011;3488;42.616;23.350;2022-09-03T00:59:13;4.57;;;4.28;;
6898;SDS011;3488;42.616;23.350;2022-09-03T01:01:53;7.13;;;5.20;;
6898;SDS011;3488;42.616;23.350;2022-09-03T01:04:33;7.47;;;5.53;;
6898;SDS011;3488;42.616;23.350;2022-09-03T01:07:09;6.10;;;5.38;;
6898;SDS011;3488;42.616;23.350;2022-09-03T01:09:46;6.15;;;5.57;;
6898;SDS011;3488;42.616;23.350;2022-09-03T01:12:23;7.35;;;5.38;;
6898;SDS011;3488;42.616;23.350;2022-09-03T01:15:01;6.55;;;5.07;;
6898;SDS011;3488;42.616;23.350;2022-09-03T01:17:37;5.40;;;4.90;;
6898;SDS011;3488;42.616;23.350;2022-09-03T01:20:12;5.38;;;4.97;;
6898;SDS011;3488;42.616;23.350;2022-09-03T01:22:57;8.18;;;5.60;;
6898;SDS011;3488;42.616;23.350;2022-09-03T01:25:50;6.93;;;5.78;;
6898;SDS011;3488;42.616;23.350;2022-09-03T01:28:26;6.28;;;5.40;;
6898;SDS011;3488;42.616;23.350;2022-09-03T01:31:05;6.57;;;6.00;;
6898;SDS011;3488;42.616;23.350;2022-09-03T01:33:42;5.97;;;5.38;;
6898;SDS011;3488;42.616;23.350;2022-09-03T01:36:16;5.35;;;4.85;;
6898;SDS011;3488;42.616;23.350;2022-09-03T01:38:51;6.10;;;5.50;;
6898;SDS011;3488;42.616;23.350;2022-09-03T01:41:24;5.80;;;5.30;;
6898;SDS011;3488;42.616;23.350;2022-09-03T01:44:19;5.80;;;5.28;;
6898;SDS011;3488;42.616;23.350;2022-09-03T01:46:58;7.90;;;5.55;;
6898;SDS011;3488;42.616;23.350;2022-09-03T01:49:36;5.85;;;5.35;;
6898;SDS011;3488;42.616;23.350;2022-09-03T01:52:09;5.82;;;4.65;;
6898;SDS011;3488;42.616;23.350;2022-09-03T01:54:44;5.95;;;5.45;;
6898;SDS011;3488;42.616;23.350;2022-09-03T02:00:13;5.18;;;4.68;;
6898;SDS011;3488;42.616;23.350;2022-09-03T02:02:45;5.60;;;5.10;;
6898;SDS011;3488;42.616;23.350;2022-09-03T02:05:16;5.60;;;5.10;;
6898;SDS011;3488;42.616;23.350;2022-09-03T02:07:45;6.63;;;5.30;;
6898;SDS011;3488;42.616;23.350;2022-09-03T02:10:15;5.38;;;4.97;;
6898;SDS011;3488;42.616;23.350;2022-09-03T02:12:45;5.18;;;4.70;;
6898;SDS011;3488;42.616;23.350;2022-09-03T02:15:16;5.93;;;5.05;;
6898;SDS011;3488;42.616;23.350;2022-09-03T02:17:45;6.60;;;4.88;;
6898;SDS011;3488;42.616;23.350;2022-09-03T02:20:15;5.22;;;4.72;;
6898;SDS011;3488;42.616;23.350;2022-09-03T02:22:45;5.10;;;4.60;;
6898;SDS011;3488;42.616;23.350;2022-09-03T02:25:13;5.28;;;4.82;;
6898;SDS011;3488;42.616;23.350;2022-09-03T02:27:40;5.80;;;5.30;;
6898;SDS011;3488;42.616;23.350;2022-09-03T02:30:08;6.38;;;4.75;;
6898;SDS011;3488;42.616;23.350;2022-09-03T02:32:38;5.82;;;5.18;;
6898;SDS011;3488;42.616;23.350;2022-09-03T02:35:05;5.82;;;5.30;;
6898;SDS011;3488;42.616;23.350;2022-09-03T02:37:33;5.43;;;4.93;;
6898;SDS011;3488;42.616;23.350;2022-09-03T02:40:00;5.47;;;4.97;;
6898;SDS011;3488;42.616;23.350;2022-09-03T02:42:30;5.88;;;5.00;;
6898;SDS011;3488;42.616;23.350;2022-09-03T02:44:59;5.30;;;4.40;;
6898;SDS011;3488;42.616;23.350;2022-09-03T02:47:33;5.50;;;5.00;;
6898;SDS011;3488;42.616;23.350;2022-09-03T02:50:04;4.93;;;4.55;;
6898;SDS011;3488;42.616;23.350;2022-09-03T02:52:32;5.80;;;5.30;;
6898;SDS011;3488;42.616;23.350;2022-09-03T02:54:59;5.75;;;5.20;;
6898;SDS011;3488;42.616;23.350;2022-09-03T02:57:26;4.97;;;4.53;;
6898;SDS011;3488;42.616;23.350;2022-09-03T02:59:53;5.57;;;5.13;;
6898;SDS011;3488;42.616;23.350;2022-09-03T03:02:20;6.18;;;5.68;;
6898;SDS011;3488;42.616;23.350;2022-09-03T03:04:47;5.10;;;4.70;;
6898;SDS011;3488;42.616;23.350;2022-09-03T03:07:15;5.55;;;5.00;;
6898;SDS011;3488;42.616;23.350;2022-09-03T03:09:42;6.22;;;5.63;;
6898;SDS011;3488;42.616;23.350;2022-09-03T03:12:09;5.85;;;5.25;;
6898;SDS011;3488;42.616;23.350;2022-09-03T03:14:36;5.68;;;5.28;;
6898;SDS011;3488;42.616;23.350;2022-09-03T03:17:03;7.22;;;5.50;;
6898;SDS011;3488;42.616;23.350;2022-09-03T03:19:30;6.25;;;5.65;;
6898;SDS011;3488;42.616;23.350;2022-09-03T03:21:57;8.20;;;5.95;;
6898;SDS011;3488;42.616;23.350;2022-09-03T03:24:25;6.40;;;5.80;;
6898;SDS011;3488;42.616;23.350;2022-09-03T03:26:54;7.55;;;6.03;;
6898;SDS011;3488;42.616;23.350;2022-09-03T03:29:23;6.15;;;5.60;;
6898;SDS011;3488;42.616;23.350;2022-09-03T03:31:50;6.43;;;5.82;;
6898;SDS011;3488;42.616;23.350;2022-09-03T03:34:18;8.95;;;6.40;;
6898;SDS011;3488;42.616;23.350;2022-09-03T03:36:45;6.20;;;5.68;;
6898;SDS011;3488;42.616;23.350;2022-09-03T03:39:12;10.20;;;6.68;;
6898;SDS011;3488;42.616;23.350;2022-09-03T03:41:40;8.70;;;6.65;;
6898;SDS011;3488;42.616;23.350;2022-09-03T03:44:07;8.35;;;7.13;;
6898;SDS011;3488;42.616;23.350;2022-09-03T03:46:34;9.95;;;7.78;;
6898;SDS011;3488;42.616;23.350;2022-09-03T03:49:02;8.40;;;7.30;;
6898;SDS011;3488;42.616;23.350;2022-09-03T03:51:30;8.75;;;6.57;;
6898;SDS011;3488;42.616;23.350;2022-09-03T03:53:58;11.27;;;7.22;;
6898;SDS011;3488;42.616;23.350;2022-09-03T03:56:25;8.50;;;7.05;;
6898;SDS011;3488;42.616;23.350;2022-09-03T03:58:54;11.63;;;7.72;;
6898;SDS011;3488;42.616;23.350;2022-09-03T04:01:22;10.20;;;6.65;;
6898;SDS011;3488;42.616;23.350;2022-09-03T04:03:51;8.60;;;7.80;;
6898;SDS011;3488;42.616;23.350;2022-09-03T04:06:20;7.93;;;6.72;;
6898;SDS011;3488;42.616;23.350;2022-09-03T04:08:47;10.70;;;7.03;;
6898;SDS011;3488;42.616;23.350;2022-09-03T04:11:16;11.23;;;6.72;;
6898;SDS011;3488;42.616;23.350;2022-09-03T04:13:44;9.02;;;7.07;;
6898;SDS011;3488;42.616;23.350;2022-09-03T04:16:13;8.73;;;7.10;;
6898;SDS011;3488;42.616;23.350;2022-09-03T04:18:42;9.82;;;7.40;;
6898;SDS011;3488;42.616;23.350;2022-09-03T04:21:11;8.43;;;7.47;;
6898;SDS011;3488;42.616;23.350;2022-09-03T04:23:40;7.85;;;7.05;;
6898;SDS011;3488;42.616;23.350;2022-09-03T04:26:08;7.82;;;6.80;;
6898;SDS011;3488;42.616;23.350;2022-09-03T04:28:37;7.60;;;6.60;;
6898;SDS011;3488;42.616;23.350;2022-09-03T04:31:06;10.02;;;6.85;;
6898;SDS011;3488;42.616;23.350;2022-09-03T04:33:35;14.30;;;6.80;;
6898;SDS011;3488;42.616;23.350;2022-09-03T04:36:04;8.23;;;6.30;;
6898;SDS011;3488;42.616;23.350;2022-09-03T04:38:32;7.65;;;6.43;;
6898;SDS011;3488;42.616;23.350;2022-09-03T04:41:00;9.48;;;5.57;;
6898;SDS011;3488;42.616;23.350;2022-09-03T04:43:27;8.82;;;6.20;;
6898;SDS011;3488;42.616;23.350;2022-09-03T04:45:55;6.88;;;6.22;;
6898;SDS011;3488;42.616;23.350;2022-09-03T04:48:23;9.77;;;6.80;;
6898;SDS011;3488;42.616;23.350;2022-09-03T04:50:52;7.70;;;6.25;;
6898;SDS011;3488;42.616;23.350;2022-09-03T04:53:20;6.88;;;5.90;;
6898;SDS011;3488;42.616;23.350;2022-09-03T04:55:47;7.38;;;6.68;;
6898;SDS011;3488;42.616;23.350;2022-09-03T04:58:15;7.78;;;6.32;;
6898;SDS011;3488;42.616;23.350;2022-09-03T05:00:42;6.55;;;5.95;;
6898;SDS011;3488;42.616;23.350;2022-09-03T05:03:09;7.15;;;5.88;;
6898;SDS011;3488;42.616;23.350;2022-09-03T05:05:36;7.30;;;6.57;;
6898;SDS011;3488;42.616;23.350;2022-09-03T05:08:04;7.90;;;6.03;;
6898;SDS011;3488;42.616;23.350;2022-09-03T05:10:32;6.25;;;5.68;;
6898;SDS011;3488;42.616;23.350;2022-09-03T05:12:59;6.32;;;5.50;;
6898;SDS011;3488;42.616;23.350;2022-09-03T05:15:27;6.22;;;5.68;;
6898;SDS011;3488;42.616;23.350;2022-09-03T05:17:56;6.93;;;5.40;;
6898;SDS011;3488;42.616;23.350;2022-09-03T05:20:23;6.57;;;5.50;;
6898;SDS011;3488;42.616;23.350;2022-09-03T05:22:50;6.13;;;5.53;;
6898;SDS011;3488;42.616;23.350;2022-09-03T05:25:19;5.53;;;4.50;;
6898;SDS011;3488;42.616;23.350;2022-09-03T05:27:46;7.18;;;5.93;;
6898;SDS011;3488;42.616;23.350;2022-09-03T05:30:13;5.80;;;5.28;;
6898;SDS011;3488;42.616;23.350;2022-09-03T05:32:41;5.60;;;5.10;;
6898;SDS011;3488;42.616;23.350;2022-09-03T05:35:08;6.53;;;5.65;;
6898;SDS011;3488;42.616;23.350;2022-09-03T05:37:36;6.38;;;5.78;;
6898;SDS011;3488;42.616;23.350;2022-09-03T05:40:03;5.28;;;4.78;;
6898;SDS011;3488;42.616;23.350;2022-09-03T05:42:32;5.85;;;5.45;;
6898;SDS011;3488;42.616;23.350;2022-09-03T05:45:03;5.32;;;4.93;;
6898;SDS011;3488;42.616;23.350;2022-09-03T05:47:35;5.80;;;5.20;;
6898;SDS011;3488;42.616;23.350;2022-09-03T05:50:04;4.43;;;4.13;;
6898;SDS011;3488;42.616;23.350;2022-09-03T05:52:33;4.68;;;4.28;;
6898;SDS011;3488;42.616;23.350;2022-09-03T05:55:00;5.00;;;4.60;;
6898;SDS011;3488;42.616;23.350;2022-09-03T05:57:27;6.00;;;4.82;;
6898;SDS011;3488;42.616;23.350;2022-09-03T05:59:56;5.10;;;4.70;;
6898;SDS011;3488;42.616;23.350;2022-09-03T06:02:24;4.65;;;4.25;;
6898;SDS011;3488;42.616;23.350;2022-09-03T06:04:51;4.18;;;3.88;;
6898;SDS011;3488;42.616;23.350;2022-09-03T06:07:17;4.75;;;4.30;;
6898;SDS011;3488;42.616;23.350;2022-09-03T06:09:45;5.38;;;4.20;;
6898;SDS011;3488;42.616;23.350;2022-09-03T06:12:14;4.50;;;4.10;;
6898;SDS011;3488;42.616;23.350;2022-09-03T06:14:41;4.80;;;4.28;;
6898;SDS011;3488;42.616;23.350;2022-09-03T06:17:10;4.80;;;4.35;;
6898;SDS011;3488;42.616;23.350;2022-09-03T06:19:39;5.20;;;4.50;;
6898;SDS011;3488;42.616;23.350;2022-09-03T06:22:05;4.45;;;4.15;;
6898;SDS011;3488;42.616;23.350;2022-09-03T06:24:32;4.65;;;4.25;;
6898;SDS011;3488;42.616;23.350;2022-09-03T06:26:59;4.18;;;3.95;;
6898;SDS011;3488;42.616;23.350;2022-09-03T06:29:27;5.00;;;4.57;;
6898;SDS011;3488;42.616;23.350;2022-09-03T06:31:54;5.03;;;4.20;;
6898;SDS011;3488;42.616;23.350;2022-09-03T06:34:22;4.55;;;4.15;;
6898;SDS011;3488;42.616;23.350;2022-09-03T06:36:50;5.03;;;4.70;;
6898;SDS011;3488;42.616;23.350;2022-09-03T06:39:17;4.43;;;4.13;;
6898;SDS011;3488;42.616;23.350;2022-09-03T06:41:44;4.97;;;4.57;;
6898;SDS011;3488;42.616;23.350;2022-09-03T06:44:16;4.93;;;4.53;;
6898;SDS011;3488;42.616;23.350;2022-09-03T06:46:43;4.40;;;3.88;;
6898;SDS011;3488;42.616;23.350;2022-09-03T06:49:11;4.45;;;4.15;;
6898;SDS011;3488;42.616;23.350;2022-09-03T06:51:39;4.35;;;4.05;;
6898;SDS011;3488;42.616;23.350;2022-09-03T06:54:09;4.53;;;4.18;;
6898;SDS011;3488;42.616;23.350;2022-09-03T06:56:37;4.80;;;4.40;;
6898;SDS011;3488;42.616;23.350;2022-09-03T06:59:05;5.20;;;4.32;;
6898;SDS011;3488;42.616;23.350;2022-09-03T07:01:33;4.90;;;4.50;;
6898;SDS011;3488;42.616;23.350;2022-09-03T07:04:02;4.50;;;4.18;;
6898;SDS011;3488;42.616;23.350;2022-09-03T07:06:31;5.60;;;5.13;;
6898;SDS011;3488;42.616;23.350;2022-09-03T07:09:02;4.72;;;4.43;;
6898;SDS011;3488;42.616;23.350;2022-09-03T07:11:30;4.32;;;3.92;;
6898;SDS011;3488;42.616;23.350;2022-09-03T07:13:58;5.30;;;4.90;;
6898;SDS011;3488;42.616;23.350;2022-09-03T07:16:26;4.97;;;4.65;;
6898;SDS011;3488;42.616;23.350;2022-09-03T07:18:55;5.38;;;4.85;;
6898;SDS011;3488;42.616;23.350;2022-09-03T07:21:23;4.20;;;3.97;;
6898;SDS011;3488;42.616;23.350;2022-09-03T07:23:52;4.78;;;4.38;;
6898;SDS011;3488;42.616;23.350;2022-09-03T07:26:21;5.03;;;4.63;;
6898;SDS011;3488;42.616;23.350;2022-09-03T07:28:50;5.13;;;4.70;;
6898;SDS011;3488;42.616;23.350;2022-09-03T07:31:18;5.43;;;4.93;;
6898;SDS011;3488;42.616;23.350;2022-09-03T07:33:46;7.05;;;5.50;;
6898;SDS011;3488;42.616;23.350;2022-09-03T07:36:14;5.85;;;5.35;;
6898;SDS011;3488;42.616;23.350;2022-09-03T07:38:42;5.03;;;4.65;;
6898;SDS011;3488;42.616;23.350;2022-09-03T07:41:10;5.00;;;4.60;;
6898;SDS011;3488;42.616;23.350;2022-09-03T07:43:40;5.57;;;5.07;;
6898;SDS011;3488;42.616;23.350;2022-09-03T07:46:11;5.78;;;4.95;;
6898;SDS011;3488;42.616;23.350;2022-09-03T07:48:38;5.70;;;5.25;;
6898;SDS011;3488;42.616;23.350;2022-09-03T07:51:06;5.05;;;4.70;;
6898;SDS011;3488;42.616;23.350;2022-09-03T07:53:33;6.50;;;5.47;;
6898;SDS011;3488;42.616;23.350;2022-09-03T07:56:01;5.82;;;5.05;;
6898;SDS011;3488;42.616;23.350;2022-09-03T07:58:29;4.80;;;4.40;;
6898;SDS011;3488;42.616;23.350;2022-09-03T08:01:02;3.70;;;3.50;;
6898;SDS011;3488;42.616;23.350;2022-09-03T08:03:32;5.85;;;3.58;;
6898;SDS011;3488;42.616;23.350;2022-09-03T08:06:00;4.25;;;3.95;;
6898;SDS011;3488;42.616;23.350;2022-09-03T08:08:28;4.07;;;3.88;;
6898;SDS011;3488;42.616;23.350;2022-09-03T08:11:01;4.68;;;4.18;;
6898;SDS011;3488;42.616;23.350;2022-09-03T08:13:29;5.07;;;4.63;;
6898;SDS011;3488;42.616;23.350;2022-09-03T08:15:59;5.05;;;4.65;;
6898;SDS011;3488;42.616;23.350;2022-09-03T08:18:26;5.65;;;4.78;;
6898;SDS011;3488;42.616;23.350;2022-09-03T08:21:03;4.50;;;4.20;;
6898;SDS011;3488;42.616;23.350;2022-09-03T08:23:32;5.50;;;5.10;;
6898;SDS011;3488;42.616;23.350;2022-09-03T08:26:02;4.82;;;4.43;;
6898;SDS011;3488;42.616;23.350;2022-09-03T08:28:29;4.70;;;4.40;;
6898;SDS011;3488;42.616;23.350;2022-09-03T08:30:57;4.50;;;4.20;;
6898;SDS011;3488;42.616;23.350;2022-09-03T08:33:29;4.30;;;4.00;;
6898;SDS011;3488;42.616;23.350;2022-09-03T08:36:03;5.57;;;5.03;;
6898;SDS011;3488;42.616;23.350;2022-09-03T08:38:31;5.13;;;4.55;;
6898;SDS011;3488;42.616;23.350;2022-09-03T08:41:05;3.78;;;3.47;;
6898;SDS011;3488;42.616;23.350;2022-09-03T08:43:38;4.85;;;4.35;;
6898;SDS011;3488;42.616;23.350;2022-09-03T08:46:20;5.18;;;4.78;;
6898;SDS011;3488;42.616;23.350;2022-09-03T08:48:51;4.20;;;4.00;;
6898;SDS011;3488;42.616;23.350;2022-09-03T08:51:19;5.03;;;4.63;;
6898;SDS011;3488;42.616;23.350;2022-09-03T08:53:52;4.15;;;3.90;;
6898;SDS011;3488;42.616;23.350;2022-09-03T08:56:23;5.25;;;4.63;;
6898;SDS011;3488;42.616;23.350;2022-09-03T08:58:52;5.00;;;4.60;;
6898;SDS011;3488;42.616;23.350;2022-09-03T09:01:25;4.95;;;4.55;;
6898;SDS011;3488;42.616;23.350;2022-09-03T09:04:04;4.90;;;4.60;;
6898;SDS011;3488;42.616;23.350;2022-09-03T09:06:38;4.18;;;3.97;;
6898;SDS011;3488;42.616;23.350;2022-09-03T09:09:15;4.90;;;4.50;;
6898;SDS011;3488;42.616;23.350;2022-09-03T09:11:58;4.80;;;4.50;;
6898;SDS011;3488;42.616;23.350;2022-09-03T09:14:34;4.55;;;4.13;;
6898;SDS011;3488;42.616;23.350;2022-09-03T09:17:11;5.05;;;4.65;;
6898;SDS011;3488;42.616;23.350;2022-09-03T09:19:54;4.88;;;4.57;;
6898;SDS011;3488;42.616;23.350;2022-09-03T09:22:30;4.07;;;3.85;;
6898;SDS011;3488;42.616;23.350;2022-09-03T09:25:03;5.10;;;4.80;;
6898;SDS011;3488;42.616;23.350;2022-09-03T09:27:37;5.53;;;5.13;;
6898;SDS011;3488;42.616;23.350;2022-09-03T09:30:15;5.35;;;4.95;;
6898;SDS011;3488;42.616;23.350;2022-09-03T09:32:44;5.60;;;5.20;;
6898;SDS011;3488;42.616;23.350;2022-09-03T09:35:12;5.85;;;5.35;;
6898;SDS011;3488;42.616;23.350;2022-09-03T09:37:47;5.65;;;5.20;;
6898;SDS011;3488;42.616;23.350;2022-09-03T09:40:22;5.70;;;5.20;;
6898;SDS011;3488;42.616;23.350;2022-09-03T09:43:04;5.40;;;5.00;;
6898;SDS011;3488;42.616;23.350;2022-09-03T09:45:32;5.32;;;4.97;;
6898;SDS011;3488;42.616;23.350;2022-09-03T09:48:01;5.53;;;5.03;;
6898;SDS011;3488;42.616;23.350;2022-09-03T09:50:35;5.60;;;5.20;;
6898;SDS011;3488;42.616;23.350;2022-09-03T09:53:02;5.55;;;5.13;;
6898;SDS011;3488;42.616;23.350;2022-09-03T09:55:47;5.63;;;5.22;;
6898;SDS011;3488;42.616;23.350;2022-09-03T09:58:15;5.78;;;5.38;;
6898;SDS011;3488;42.616;23.350;2022-09-03T10:01:02;4.90;;;4.60;;
6898;SDS011;3488;42.616;23.350;2022-09-03T10:03:40;5.88;;;5.40;;
6898;SDS011;3488;42.616;23.350;2022-09-03T10:06:14;5.82;;;5.07;;
6898;SDS011;3488;42.616;23.350;2022-09-03T10:09:06;5.97;;;5.57;;
6898;SDS011;3488;42.616;23.350;2022-09-03T10:11:36;6.38;;;5.88;;
6898;SDS011;3488;42.616;23.350;2022-09-03T10:14:09;6.97;;;5.50;;
6898;SDS011;3488;42.616;23.350;2022-09-03T10:16:45;5.47;;;5.00;;
6898;SDS011;3488;42.616;23.350;2022-09-03T10:19:17;4.95;;;4.53;;
6898;SDS011;3488;42.616;23.350;2022-09-03T10:21:52;11.07;;;5.28;;
6898;SDS011;3488;42.616;23.350;2022-09-03T10:24:30;5.40;;;5.10;;
6898;SDS011;3488;42.616;23.350;2022-09-03T10:27:05;5.35;;;4.82;;
6898;SDS011;3488;42.616;23.350;2022-09-03T10:29:36;5.25;;;4.80;;
6898;SDS011;3488;42.616;23.350;2022-09-03T10:32:10;5.20;;;4.80;;
6898;SDS011;3488;42.616;23.350;2022-09-03T10:34:51;6.82;;;5.43;;
6898;SDS011;3488;42.616;23.350;2022-09-03T10:37:28;6.00;;;5.50;;
6898;SDS011;3488;42.616;23.350;2022-09-03T10:40:09;4.88;;;4.57;;
6898;SDS011;3488;42.616;23.350;2022-09-03T10:42:47;6.13;;;5.65;;
6898;SDS011;3488;42.616;23.350;2022-09-03T10:45:27;5.07;;;4.75;;
6898;SDS011;3488;42.616;23.350;2022-09-03T10:48:15;5.07;;;4.70;;
6898;SDS011;3488;42.616;23.350;2022-09-03T10:50:58;5.75;;;5.35;;
6898;SDS011;3488;42.616;23.350;2022-09-03T10:53:35;5.90;;;5.47;;
6898;SDS011;3488;42.616;23.350;2022-09-03T10:56:16;5.30;;;4.90;;
6898;SDS011;3488;42.616;23.350;2022-09-03T10:58:51;6.13;;;5.63;;
6898;SDS011;3488;42.616;23.350;2022-09-03T11:01:27;4.82;;;4.53;;
6898;SDS011;3488;42.616;23.350;2022-09-03T11:04:16;5.80;;;5.40;;
6898;SDS011;3488;42.616;23.350;2022-09-03T11:06:53;6.10;;;5.60;;
6898;SDS011;3488;42.616;23.350;2022-09-03T11:09:26;5.05;;;4.75;;
6898;SDS011;3488;42.616;23.350;2022-09-03T11:12:03;5.20;;;4.85;;
6898;SDS011;3488;42.616;23.350;2022-09-03T11:14:35;4.90;;;4.50;;
6898;SDS011;3488;42.616;23.350;2022-09-03T11:17:10;4.90;;;4.55;;
6898;SDS011;3488;42.616;23.350;2022-09-03T11:19:44;4.85;;;4.45;;
6898;SDS011;3488;42.616;23.350;2022-09-03T11:22:16;4.75;;;4.45;;
6898;SDS011;3488;42.616;23.350;2022-09-03T11:24:48;4.50;;;4.20;;
6898;SDS011;3488;42.616;23.350;2022-09-03T11:27:26;4.53;;;4.22;;
6898;SDS011;3488;42.616;23.350;2022-09-03T11:30:02;5.05;;;4.65;;
6898;SDS011;3488;42.616;23.350;2022-09-03T11:32:40;4.28;;;4.00;;
6898;SDS011;3488;42.616;23.350;2022-09-03T11:35:14;4.80;;;4.40;;
6898;SDS011;3488;42.616;23.350;2022-09-03T11:37:51;5.35;;;5.05;;
6898;SDS011;3488;42.616;23.350;2022-09-03T11:40:20;5.00;;;4.68;;
6898;SDS011;3488;42.616;23.350;2022-09-03T11:43:04;10.07;;;4.47;;
6898;SDS011;3488;42.616;23.350;2022-09-03T11:45:35;4.28;;;4.00;;
6898;SDS011;3488;42.616;23.350;2022-09-03T11:48:18;4.68;;;4.38;;
6898;SDS011;3488;42.616;23.350;2022-09-03T11:50:59;3.85;;;3.65;;
6898;SDS011;3488;42.616;23.350;2022-09-03T11:53:32;4.47;;;4.18;;
6898;SDS011;3488;42.616;23.350;2022-09-03T11:56:11;4.40;;;4.10;;
6898;SDS011;3488;42.616;23.350;2022-09-03T11:58:43;4.22;;;3.92;;
6898;SDS011;3488;42.616;23.350;2022-09-03T12:01:11;4.38;;;4.10;;
6898;SDS011;3488;42.616;23.350;2022-09-03T12:03:42;3.90;;;3.70;;
6898;SDS011;3488;42.616;23.350;2022-09-03T12:06:29;3.95;;;3.67;;
6898;SDS011;3488;42.616;23.350;2022-09-03T12:12:16;3.72;;;3.42;;
6898;SDS011;3488;42.616;23.350;2022-09-03T12:14:58;4.05;;;3.75;;
6898;SDS011;3488;42.616;23.350;2022-09-03T12:17:31;4.15;;;3.90;;
6898;SDS011;3488;42.616;23.350;2022-09-03T12:20:09;3.97;;;3.78;;
6898;SDS011;3488;42.616;23.350;2022-09-03T12:22:37;4.18;;;3.88;;
6898;SDS011;3488;42.616;23.350;2022-09-03T12:25:09;3.80;;;3.60;;
6898;SDS011;3488;42.616;23.350;2022-09-03T12:27:38;4.25;;;3.88;;
6898;SDS011;3488;42.616;23.350;2022-09-03T12:30:13;3.83;;;3.55;;
6898;SDS011;3488;42.616;23.350;2022-09-03T12:32:42;3.10;;;2.95;;
6898;SDS011;3488;42.616;23.350;2022-09-03T12:35:11;3.33;;;3.17;;
6898;SDS011;3488;42.616;23.350;2022-09-03T12:37:40;4.30;;;4.10;;
6898;SDS011;3488;42.616;23.350;2022-09-03T12:40:19;3.75;;;3.55;;
6898;SDS011;3488;42.616;23.350;2022-09-03T12:42:47;3.78;;;3.22;;
6898;SDS011;3488;42.616;23.350;2022-09-03T12:45:17;3.35;;;3.15;;
6898;SDS011;3488;42.616;23.350;2022-09-03T12:47:46;3.38;;;3.17;;
6898;SDS011;3488;42.616;23.350;2022-09-03T12:50:13;3.60;;;3.30;;
6898;SDS011;3488;42.616;23.350;2022-09-03T12:52:42;3.63;;;3.17;;
6898;SDS011;3488;42.616;23.350;2022-09-03T12:55:17;4.55;;;4.25;;
6898;SDS011;3488;42.616;23.350;2022-09-03T12:57:53;4.32;;;3.92;;
6898;SDS011;3488;42.616;23.350;2022-09-03T13:00:26;3.83;;;3.53;;
6898;SDS011;3488;42.616;23.350;2022-09-03T13:02:56;5.40;;;3.88;;
6898;SDS011;3488;42.616;23.350;2022-09-03T13:05:29;3.80;;;3.42;;
6898;SDS011;3488;42.616;23.350;2022-09-03T13:07:59;4.50;;;4.20;;
6898;SDS011;3488;42.616;23.350;2022-09-03T13:10:32;4.15;;;3.70;;
6898;SDS011;3488;42.616;23.350;2022-09-03T13:13:02;4.00;;;3.80;;
6898;SDS011;3488;42.616;23.350;2022-09-03T13:15:53;4.15;;;3.85;;
6898;SDS011;3488;42.616;23.350;2022-09-03T13:18:26;3.88;;;3.58;;
6898;SDS011;3488;42.616;23.350;2022-09-03T13:21:02;3.72;;;3.53;;
6898;SDS011;3488;42.616;23.350;2022-09-03T13:23:42;3.83;;;3.58;;
6898;SDS011;3488;42.616;23.350;2022-09-03T13:26:33;4.00;;;3.60;;
6898;SDS011;3488;42.616;23.350;2022-09-03T13:29:15;3.95;;;3.65;;
6898;SDS011;3488;42.616;23.350;2022-09-03T13:31:56;3.25;;;3.05;;
6898;SDS011;3488;42.616;23.350;2022-09-03T13:34:29;3.45;;;3.25;;
6898;SDS011;3488;42.616;23.350;2022-09-03T13:37:03;3.00;;;2.80;;
6898;SDS011;3488;42.616;23.350;2022-09-03T13:39:42;3.97;;;3.70;;
6898;SDS011;3488;42.616;23.350;2022-09-03T13:42:19;4.15;;;3.90;;
6898;SDS011;3488;42.616;23.350;2022-09-03T13:44:54;3.67;;;3.38;;
6898;SDS011;3488;42.616;23.350;2022-09-03T13:47:26;3.17;;;2.88;;
6898;SDS011;3488;42.616;23.350;2022-09-03T13:50:01;3.08;;;2.97;;
6898;SDS011;3488;42.616;23.350;2022-09-03T13:52:49;3.28;;;3.08;;
6898;SDS011;3488;42.616;23.350;2022-09-03T13:55:25;3.78;;;3.38;;
6898;SDS011;3488;42.616;23.350;2022-09-03T13:58:00;3.75;;;3.53;;
6898;SDS011;3488;42.616;23.350;2022-09-03T14:00:33;3.38;;;3.15;;
6898;SDS011;3488;42.616;23.350;2022-09-03T14:03:09;2.97;;;2.80;;
6898;SDS011;3488;42.616;23.350;2022-09-03T14:05:49;3.05;;;2.92;;
6898;SDS011;3488;42.616;23.350;2022-09-03T14:08:31;3.50;;;3.30;;
6898;SDS011;3488;42.616;23.350;2022-09-03T14:11:18;3.40;;;3.20;;
6898;SDS011;3488;42.616;23.350;2022-09-03T14:13:56;2.85;;;2.65;;
6898;SDS011;3488;42.616;23.350;2022-09-03T14:16:35;3.53;;;3.22;;
6898;SDS011;3488;42.616;23.350;2022-09-03T14:19:08;3.30;;;3.00;;
6898;SDS011;3488;42.616;23.350;2022-09-03T14:21:42;3.45;;;3.25;;
6898;SDS011;3488;42.616;23.350;2022-09-03T14:24:13;3.45;;;3.25;;
6898;SDS011;3488;42.616;23.350;2022-09-03T14:26:49;2.85;;;2.65;;
6898;SDS011;3488;42.616;23.350;2022-09-03T14:29:22;3.38;;;3.17;;
6898;SDS011;3488;42.616;23.350;2022-09-03T14:32:01;3.28;;;3.08;;
6898;SDS011;3488;42.616;23.350;2022-09-03T14:34:44;4.72;;;2.92;;
6898;SDS011;3488;42.616;23.350;2022-09-03T14:37:30;3.60;;;3.38;;
6898;SDS011;3488;42.616;23.350;2022-09-03T14:40:09;3.63;;;3.42;;
6898;SDS011;3488;42.616;23.350;2022-09-03T14:45:41;3.28;;;3.08;;
6898;SDS011;3488;42.616;23.350;2022-09-03T14:48:34;3.72;;;3.53;;
6898;SDS011;3488;42.616;23.350;2022-09-03T14:51:18;3.50;;;3.28;;
6898;SDS011;3488;42.616;23.350;2022-09-03T14:54:05;3.92;;;3.63;;
6898;SDS011;3488;42.616;23.350;2022-09-03T14:56:48;3.70;;;3.50;;
6898;SDS011;3488;42.616;23.350;2022-09-03T14:59:29;4.60;;;2.90;;
6898;SDS011;3488;42.616;23.350;2022-09-03T15:02:17;3.90;;;3.67;;
6898;SDS011;3488;42.616;23.350;2022-09-03T15:05:07;3.47;;;3.28;;
6898;SDS011;3488;42.616;23.350;2022-09-03T15:07:40;2.90;;;2.70;;
6898;SDS011;3488;42.616;23.350;2022-09-03T15:10:15;2.70;;;2.60;;
6898;SDS011;3488;42.616;23.350;2022-09-03T15:12:52;3.75;;;3.45;;
6898;SDS011;3488;42.616;23.350;2022-09-03T15:15:25;3.28;;;3.08;;
6898;SDS011;3488;42.616;23.350;2022-09-03T15:18:06;3.13;;;2.83;;
6898;SDS011;3488;42.616;23.350;2022-09-03T15:20:46;3.50;;;2.75;;
6898;SDS011;3488;42.616;23.350;2022-09-03T15:23:20;2.45;;;2.35;;
6898;SDS011;3488;42.616;23.350;2022-09-03T15:28:58;3.08;;;2.90;;
6898;SDS011;3488;42.616;23.350;2022-09-03T15:31:41;2.63;;;2.42;;
6898;SDS011;3488;42.616;23.350;2022-09-03T15:34:18;2.85;;;2.75;;
6898;SDS011;3488;42.616;23.350;2022-09-03T15:37:01;3.05;;;2.85;;
6898;SDS011;3488;42.616;23.350;2022-09-03T15:39:39;4.03;;;3.08;;
6898;SDS011;3488;42.616;23.350;2022-09-03T15:42:10;3.58;;;2.85;;
6898;SDS011;3488;42.616;23.350;2022-09-03T15:44:45;3.38;;;3.10;;